Norbank — PGIS — position and weather

sailwx.info

Track history (hours):
 
Tides and Currents Weather Stations Pressure Air Temp Water Temp Dewpoint Dewpoint Depression Visibility Wind Speed Wind Dir Waves Ship Positions

Norbank

Operator: P & O Ferries

Last reported at 2018-May-27 16:52 UTC. Time now 2018-May-27 17:12 UTC.
Position N 53°27' W 003°01'.

Length 167 m; draft 5.6 m.

Type: Ship (hazmat cat A). MMSI: 246213000.

Date/timePositionNaut miles runAvg speedWind from/ knotsBaromVisibWave heightAir tempDewpointWater temp
2018-May-27 16:52N 53°27' W 003°01'0 0.0
2018-May-27 16:25N 53°27' W 003°01'0 0.0
2018-May-27 16:00N 53°27' W 003°01'0 0.0
2018-May-27 15:30N 53°27' W 003°01'0 0.0
2018-May-27 14:54N 53°27' W 003°01'0 0.0
2018-May-27 14:30N 53°27' W 003°01'0 0.0
2018-May-27 14:00N 53°27' W 003°01'0 0.0
2018-May-27 13:26N 53°27' W 003°01'0 0.0
2018-May-27 12:59N 53°27' W 003°01'0 0.0
2018-May-27 12:26N 53°27' W 003°01'0 0.0
2018-May-27 11:53N 53°27' W 003°01'0 0.0
2018-May-27 11:28N 53°27' W 003°01'0 0.0
2018-May-27 10:58N 53°27' W 003°01'0 0.0
2018-May-27 10:28N 53°27' W 003°01'0 0.0
2018-May-27 09:58N 53°27' W 003°01'0 0.0
2018-May-27 09:28N 53°27' W 003°01'0 0.0
2018-May-27 08:54N 53°27' W 003°01'0 0.0
2018-May-27 08:27N 53°27' W 003°01'0 0.0
2018-May-27 08:00N 53°27' W 003°01'0 0.0
2018-May-27 07:30N 53°27' W 003°01'0 0.0
2018-May-27 07:00N 53°27' W 003°01'0 0.0
2018-May-27 06:26N 53°27' W 003°01'0 0.0
2018-May-27 05:59N 53°27' W 003°01'0 0.0
2018-May-27 05:29N 53°27' W 003°01'0 0.0
2018-May-27 04:56N 53°27' W 003°01'0 0.9
2018-May-27 04:28N 53°27' W 003°01'0 0.2
2018-May-27 04:00N 53°27' W 003°01'510.9
2018-May-27 03:30N 53°31' W 003°07'815.6
2018-May-27 03:00N 53°31' W 003°20'817.1
2018-May-27 02:30N 53°31' W 003°34'816.5
2018-May-27 02:00N 53°32' W 003°48'816.6
2018-May-27 01:30N 53°34' W 004°02'916.6
2018-May-27 00:58N 53°36' W 004°16'916.7
2018-May-27 00:25N 53°36' W 004°32'716.5
2018-May-26 23:59N 53°35' W 004°44'2417.6
2018-May-26 22:35N 53°28' W 005°24'218.8
2018-May-26 22:29N 53°28' W 005°27'1018.9
2018-May-26 21:57N 53°25' W 005°43'1018.6
2018-May-26 21:24N 53°21' W 005°59'613.3
2018-May-26 20:56N 53°21' W 006°10'2 0.5
2018-May-26 17:01N 53°21' W 006°13'0 0.0
2018-May-26 16:55N 53°21' W 006°13'0 0.4
2018-May-26 16:30N 53°21' W 006°13'4 8.4
2018-May-26 16:00N 53°20' W 006°06'917.9
2018-May-26 15:31N 53°23' W 005°52'8020.4
2018-May-26 11:37N 53°33' W 003°39'220.9
2018-May-26 11:31N 53°33' W 003°36'1020.5
2018-May-26 11:00N 53°32' W 003°18'815.6
2018-May-26 10:30N 53°30' W 003°06'4 8.1
2018-May-26 10:00N 53°27' W 003°01'0 0.9
2018-May-26 09:30N 53°27' W 003°01'0 0.0
2018-May-26 08:58N 53°27' W 003°01'0 0.0
2018-May-26 08:25N 53°27' W 003°01'0 0.0
2018-May-26 07:58N 53°27' W 003°01'0 0.0
2018-May-26 07:25N 53°27' W 003°01'0 0.0
2018-May-26 06:58N 53°27' W 003°01'0 0.0
2018-May-26 06:30N 53°27' W 003°01'0 0.0
2018-May-26 05:30N 53°27' W 003°01'0 0.0
2018-May-26 05:00N 53°27' W 003°01'0 0.0
2018-May-26 04:30N 53°27' W 003°01'0 0.9
2018-May-26 04:00N 53°27' W 003°01'0 0.4
2018-May-26 03:31N 53°27' W 003°01'611.1
2018-May-26 03:00N 53°31' W 003°07'815.4
2018-May-26 02:30N 53°31' W 003°20'918.4
2018-May-26 02:00N 53°31' W 003°35'918.1
2018-May-26 01:30N 53°32' W 003°51'918.1
2018-May-26 01:00N 53°32' W 004°06'7219.1
2018-May-25 21:14N 53°20' W 006°04'510.2
2018-May-25 20:45N 53°21' W 006°13'0 0.1
2018-May-25 17:30N 53°21' W 006°13'0 0.0
2018-May-25 16:57N 53°21' W 006°13'0 0.0
2018-May-25 16:30N 53°21' W 006°13'2 4.0
2018-May-25 16:00N 53°21' W 006°10'714.4
2018-May-25 15:30N 53°22' W 005°58'916.9
2018-May-25 14:59N 53°25' W 005°44'917.1
2018-May-25 14:27N 53°28' W 005°29'817.2
2018-May-25 13:58N 53°30' W 005°16'4116.9
2018-May-25 11:31N 53°35' W 004°07'217.5
2018-May-25 11:23N 53°35' W 004°03'717.6
2018-May-25 11:00N 53°34' W 003°52'917.3
2018-May-25 10:30N 53°33' W 003°37'917.8
2018-May-25 10:00N 53°33' W 003°22'918.6
2018-May-25 09:30N 53°31' W 003°07'511.0
2018-May-25 09:00N 53°27' W 003°01'0 0.8
2018-May-25 08:28N 53°27' W 003°01'0 0.0
2018-May-25 08:01N 53°27' W 003°01'0 0.0
2018-May-25 07:27N 53°27' W 003°01'0 0.0
2018-May-25 07:00N 53°27' W 003°01'0 0.0
2018-May-25 06:30N 53°27' W 003°01'0 0.0
2018-May-25 05:54N 53°27' W 003°01'0 0.0
2018-May-25 05:29N 53°27' W 003°01'0 0.0
2018-May-25 04:59N 53°27' W 003°01'0 0.0
2018-May-25 04:26N 53°27' W 003°01'0 0.9
2018-May-25 03:59N 53°27' W 003°01'1 1.2
2018-May-25 03:30N 53°27' W 003°02'5 9.1
2018-May-25 03:00N 53°31' W 003°07'815.6
2018-May-25 02:30N 53°31' W 003°20'917.5
2018-May-25 02:00N 53°31' W 003°35'917.3
2018-May-25 01:30N 53°32' W 003°49'917.2
2018-May-25 01:00N 53°33' W 004°03'917.7
2018-May-25 00:30N 53°35' W 004°18'917.7
2018-May-25 00:00N 53°35' W 004°33'917.6
2018-May-24 23:30N 53°35' W 004°48'1819.4
2018-May-24 22:35N 53°30' W 005°17'220.4
2018-May-24 22:29N 53°29' W 005°20'2221.0
2018-May-24 21:26N 53°23' W 005°55'717.1
2018-May-24 21:00N 53°20' W 006°07'4 3.2
2018-May-24 19:49N 53°21' W 006°13'0 0.0
2018-May-24 16:42N 53°21' W 006°13'0 0.0
2018-May-24 16:30N 53°21' W 006°13'2 3.8
2018-May-24 16:00N 53°21' W 006°10'714.0
2018-May-24 15:30N 53°22' W 005°59'917.0
2018-May-24 15:00N 53°25' W 005°45'1016.7
2018-May-24 14:24N 53°27' W 005°29'8815.9
2018-May-24 08:52N 53°27' W 003°01'0 1.2
2018-May-24 08:30N 53°27' W 003°01'0 0.0
2018-May-24 08:00N 53°27' W 003°01'0 0.0
2018-May-24 07:30N 53°27' W 003°01'0 0.0
2018-May-24 06:57N 53°27' W 003°01'0 0.0
2018-May-24 06:30N 53°27' W 003°01'0 0.0
2018-May-24 05:56N 53°27' W 003°01'0 0.0
2018-May-24 05:26N 53°27' W 003°01'0 0.0
2018-May-24 04:59N 53°27' W 003°01'0 0.0
2018-May-24 04:26N 53°27' W 003°01'0 0.2
2018-May-24 04:00N 53°27' W 003°01'0 0.9
2018-May-24 03:30N 53°27' W 003°01'5 9.5
2018-May-24 03:00N 53°30' W 003°06'816.0
2018-May-24 02:30N 53°31' W 003°20'917.6
2018-May-24 02:00N 53°31' W 003°34'917.4
2018-May-24 01:30N 53°32' W 003°49'917.3
2018-May-24 01:00N 53°33' W 004°04'1017.2
2018-May-24 00:27N 53°35' W 004°20'4817.9
2018-May-23 21:45N 53°26' W 005°39'519.3
2018-May-23 21:30N 53°24' W 005°47'918.7
2018-May-23 21:00N 53°21' W 006°01'711.5
2018-May-23 20:26N 53°21' W 006°12'0 0.3
2018-May-23 19:06N 53°21' W 006°13'0 0.0
2018-May-23 18:36N 53°21' W 006°13'0 0.0
2018-May-23 18:24N 53°21' W 006°13'0 0.0
2018-May-23 17:14N 53°21' W 006°13'0 0.0
2018-May-23 16:41N 53°21' W 006°13'0 0.2
2018-May-23 16:20N 53°21' W 006°13'2 5.6
2018-May-23 15:59N 53°21' W 006°10'815.8
2018-May-23 15:29N 53°22' W 005°57'1019.1
2018-May-23 14:59N 53°25' W 005°42'5320.2
2018-May-23 12:21N 53°35' W 004°14'1819.8
2018-May-23 11:28N 53°34' W 003°44'920.2
2018-May-23 11:00N 53°33' W 003°28'919.2
2018-May-23 10:31N 53°31' W 003°13'816.1
2018-May-23 10:00N 53°27' W 003°01'0 0.6
2018-May-23 09:30N 53°27' W 003°01'0 0.8
2018-May-23 08:59N 53°27' W 003°01'0 0.0
2018-May-23 08:29N 53°27' W 003°01'0 0.0
2018-May-23 07:59N 53°27' W 003°01'0 0.0
2018-May-23 07:28N 53°27' W 003°01'0 0.0
2018-May-23 06:58N 53°27' W 003°01'0 0.0
2018-May-23 06:28N 53°27' W 003°01'0 0.0
2018-May-23 05:58N 53°27' W 003°01'0 0.0
2018-May-23 05:27N 53°27' W 003°01'0 0.9
2018-May-23 04:57N 53°27' W 003°01'0 0.3
2018-May-23 04:28N 53°27' W 003°01'1 2.0
2018-May-23 04:00N 53°27' W 003°02'4 7.0
2018-May-23 03:30N 53°30' W 003°06'4 7.5
2018-May-23 03:00N 53°31' W 003°12'611.0
2018-May-23 02:30N 53°31' W 003°21'1019.7
2018-May-23 02:00N 53°31' W 003°38'917.6
2018-May-23 01:30N 53°32' W 003°52'918.1
2018-May-23 01:00N 53°34' W 004°07'1017.8
2018-May-23 00:25N 53°36' W 004°25'717.5
2018-May-23 00:00N 53°36' W 004°37'5416.6
2018-May-22 20:45N 53°20' W 006°04'413.7
2018-May-22 20:29N 53°21' W 006°10'2 0.5
2018-May-22 16:23N 53°21' W 006°13'3 6.8
2018-May-22 16:00N 53°21' W 006°09'917.2
2018-May-22 15:30N 53°23' W 005°55'1219.1
2018-May-22 14:54N 53°27' W 005°36'719.2
2018-May-22 14:30N 53°29' W 005°24'5917.9
2018-May-22 11:14N 53°34' W 003°46'519.5
2018-May-22 11:00N 53°33' W 003°38'1019.7
2018-May-22 10:30N 53°32' W 003°22'917.6
2018-May-22 10:00N 53°31' W 003°07'611.1
2018-May-22 09:30N 53°27' W 003°01'0 0.0
2018-May-22 09:00N 53°27' W 003°01'0 0.8
2018-May-22 08:29N 53°27' W 003°01'0 0.0
2018-May-22 07:58N 53°27' W 003°01'0 0.0
2018-May-22 07:22N 53°27' W 003°01'0 0.0
2018-May-22 06:58N 53°27' W 003°01'0 0.0
2018-May-22 06:28N 53°27' W 003°01'0 0.0
2018-May-22 05:58N 53°27' W 003°01'0 0.0
2018-May-22 05:30N 53°27' W 003°01'0 0.0
2018-May-22 05:01N 53°27' W 003°01'0 0.8
2018-May-22 04:30N 53°27' W 003°01'1 2.2
2018-May-22 04:00N 53°28' W 003°03'612.3
2018-May-22 03:30N 53°32' W 003°11'612.1
2018-May-22 03:00N 53°31' W 003°21'713.9
2018-May-22 02:30N 53°31' W 003°33'714.6
2018-May-22 02:00N 53°31' W 003°45'714.4
2018-May-22 01:30N 53°33' W 003°57'714.6
2018-May-22 01:00N 53°34' W 004°09'5115.4
2018-May-21 21:40N 53°26' W 005°34'314.7
2018-May-21 21:28N 53°25' W 005°39'816.7
2018-May-21 21:01N 53°23' W 005°51'916.7
2018-May-21 20:29N 53°20' W 006°04'5 9.5
2018-May-21 19:57N 53°21' W 006°13'0 0.0
2018-May-21 05:27N 53°21' W 006°13'0 0.0
2018-May-21 04:47N 53°21' W 006°13'0 0.0
2018-May-21 04:24N 53°21' W 006°13'1 2.3
2018-May-21 04:00N 53°21' W 006°12'612.0
2018-May-21 03:30N 53°21' W 006°02'815.2
2018-May-21 02:59N 53°24' W 005°50'815.4
2018-May-21 02:30N 53°26' W 005°38'4815.2
2018-May-20 23:20N 53°36' W 004°19'915.4
2018-May-20 22:44N 53°36' W 004°03'416.6
2018-May-20 22:30N 53°36' W 003°57'816.6
2018-May-20 22:00N 53°34' W 003°43'817.2
2018-May-20 21:30N 53°33' W 003°29'917.2
2018-May-20 21:00N 53°31' W 003°14'714.7
2018-May-20 20:30N 53°28' W 003°03'2 3.2
2018-May-20 20:00N 53°27' W 003°01'0 0.6
2018-May-20 19:16N 53°27' W 003°01'0 0.0
2018-May-20 18:58N 53°27' W 003°01'0 0.0
2018-May-20 18:28N 53°27' W 003°01'0 0.0
2018-May-20 17:55N 53°27' W 003°01'0 0.0
2018-May-20 17:30N 53°27' W 003°01'0 0.0
2018-May-20 17:00N 53°27' W 003°01'0 0.0
2018-May-20 16:30N 53°27' W 003°01'0 0.0
2018-May-20 16:00N 53°27' W 003°01'0 0.0
2018-May-20 15:24N 53°27' W 003°01'0 0.0
2018-May-20 14:59N 53°27' W 003°01'0 0.0
2018-May-20 14:29N 53°27' W 003°01'0 0.0
2018-May-20 13:59N 53°27' W 003°01'0 0.0
2018-May-20 13:29N 53°27' W 003°01'0 0.0
2018-May-20 12:58N 53°27' W 003°01'0 0.0
2018-May-20 12:25N 53°27' W 003°01'0 0.0
2018-May-20 11:55N 53°27' W 003°01'0 0.0
2018-May-20 11:28N 53°27' W 003°01'0 0.0
2018-May-20 10:58N 53°27' W 003°01'0 0.0
2018-May-20 10:30N 53°27' W 003°01'0 0.0
2018-May-20 10:00N 53°27' W 003°01'0 0.0
2018-May-20 09:30N 53°27' W 003°01'0 0.0
2018-May-20 09:00N 53°27' W 003°01'0 0.0
2018-May-20 08:27N 53°27' W 003°01'0 0.0
2018-May-20 07:59N 53°27' W 003°01'0 0.0
2018-May-20 07:29N 53°27' W 003°01'0 0.0
2018-May-20 06:59N 53°27' W 003°01'0 0.0
2018-May-20 06:29N 53°27' W 003°01'0 0.0
2018-May-20 05:58N 53°27' W 003°01'0 0.0
2018-May-20 05:28N 53°27' W 003°01'0 0.0
2018-May-20 04:58N 53°27' W 003°01'0 0.9
2018-May-20 04:27N 53°27' W 003°01'0 0.7
2018-May-20 04:00N 53°27' W 003°02'714.4
2018-May-20 03:30N 53°31' W 003°11'918.2
2018-May-20 03:00N 53°31' W 003°26'918.1
2018-May-20 02:31N 53°31' W 003°42'917.0
2018-May-20 02:00N 53°32' W 003°56'917.4
2018-May-20 01:30N 53°33' W 004°10'712.6
2018-May-20 00:57N 53°35' W 004°22'613.2
2018-May-20 00:30N 53°36' W 004°32'713.9
2018-May-20 00:00N 53°35' W 004°43'714.1
2018-May-19 23:30N 53°33' W 004°55'713.1
2018-May-19 22:57N 53°32' W 005°07'817.2
2018-May-19 22:30N 53°29' W 005°19'917.5
2018-May-19 21:59N 53°26' W 005°33'1417.5
2018-May-19 21:11N 53°22' W 005°56'517.8
2018-May-19 20:53N 53°20' W 006°04'511.6
2018-May-19 20:30N 53°21' W 006°11'1 0.3
2018-May-19 17:00N 53°21' W 006°13'0 0.0
2018-May-19 16:12N 53°21' W 006°13'0 0.0
2018-May-19 10:13N 53°21' W 006°13'0 0.1
2018-May-19 09:55N 53°21' W 006°13'2 4.8
2018-May-19 09:28N 53°21' W 006°09'715.0
2018-May-19 09:00N 53°22' W 005°58'816.6
2018-May-19 08:30N 53°25' W 005°45'916.9
2018-May-19 07:59N 53°27' W 005°30'916.9
2018-May-19 07:28N 53°29' W 005°16'817.3
2018-May-19 07:00N 53°32' W 005°03'817.0
2018-May-19 06:30N 53°34' W 004°50'917.5
2018-May-19 06:00N 53°35' W 004°35'918.0
2018-May-19 05:30N 53°35' W 004°20'1019.3
2018-May-19 04:59N 53°35' W 004°03'919.3
2018-May-19 04:30N 53°34' W 003°47'1020.0
2018-May-19 04:00N 53°33' W 003°31'1019.8
2018-May-19 03:29N 53°31' W 003°14'816.1
2018-May-19 03:00N 53°28' W 003°02'1 1.9
2018-May-19 02:30N 53°27' W 003°01'0 0.8
2018-May-19 01:56N 53°27' W 003°01'0 0.0
2018-May-19 01:26N 53°27' W 003°01'0 0.0
2018-May-19 00:56N 53°27' W 003°01'0 0.0
2018-May-19 00:25N 53°27' W 003°01'0 0.0
2018-May-18 23:58N 53°27' W 003°01'0 0.0
2018-May-18 23:28N 53°27' W 003°01'0 0.0
2018-May-18 22:52N 53°27' W 003°01'0 0.0
2018-May-18 22:30N 53°27' W 003°01'0 0.8
2018-May-18 22:00N 53°27' W 003°01'0 0.7
2018-May-18 21:30N 53°27' W 003°02'714.3
2018-May-18 21:00N 53°32' W 003°11'815.9
2018-May-18 20:30N 53°31' W 003°25'817.1
2018-May-18 20:00N 53°31' W 003°39'917.0
2018-May-18 19:30N 53°32' W 003°53'817.0
2018-May-18 19:00N 53°33' W 004°07'816.5
2018-May-18 18:30N 53°34' W 004°21'916.0
2018-May-18 17:56N 53°35' W 004°36'715.5
2018-May-18 17:30N 53°34' W 004°47'1615.6
2018-May-18 16:28N 53°29' W 005°13'816.9
2018-May-18 16:00N 53°26' W 005°26'917.3
2018-May-18 15:30N 53°24' W 005°39'1017.1
2018-May-18 14:56N 53°22' W 005°56'715.2
2018-May-18 14:29N 53°20' W 006°07'4 7.4
2018-May-18 13:57N 53°21' W 006°13'0 0.0
2018-May-18 12:47N 53°21' W 006°13'0 0.0
2018-May-18 12:14N 53°21' W 006°13'0 0.0
2018-May-18 10:16N 53°21' W 006°13'0 0.0
2018-May-18 10:00N 53°21' W 006°13'2 4.3
2018-May-18 09:30N 53°21' W 006°09'815.6
2018-May-18 09:00N 53°23' W 005°57'817.1
2018-May-18 08:30N 53°25' W 005°43'1017.8
2018-May-18 07:56N 53°28' W 005°27'1717.9
2018-May-18 06:59N 53°33' W 004°60'918.1
2018-May-18 06:30N 53°35' W 004°46'918.7
2018-May-18 06:00N 53°38' W 004°30'1219.2
2018-May-18 05:23N 53°35' W 004°11'820.8
2018-May-18 05:00N 53°34' W 003°57'1121.0
2018-May-18 04:30N 53°34' W 003°40'1021.1
2018-May-18 04:00N 53°33' W 003°22'918.7
2018-May-18 03:30N 53°31' W 003°07'510.6
2018-May-18 03:00N 53°27' W 003°01'0 0.8
2018-May-18 02:30N 53°27' W 003°01'0 0.3
2018-May-18 01:58N 53°27' W 003°01'0 0.0
2018-May-18 01:30N 53°27' W 003°01'0 0.0
2018-May-18 01:00N 53°27' W 003°01'0 0.0
2018-May-18 00:27N 53°27' W 003°01'0 0.0
2018-May-17 23:57N 53°27' W 003°01'0 0.0
2018-May-17 23:23N 53°27' W 003°01'0 0.0
2018-May-17 23:00N 53°27' W 003°01'0 0.7
2018-May-17 22:27N 53°27' W 003°01'1 3.3
2018-May-17 22:00N 53°28' W 003°03'3 5.4
2018-May-17 21:30N 53°30' W 003°06'4 7.8
2018-May-17 21:00N 53°31' W 003°12'714.4
2018-May-17 20:30N 53°31' W 003°24'816.9
2018-May-17 20:00N 53°31' W 003°38'916.9
2018-May-17 19:30N 53°32' W 003°53'816.7
2018-May-17 19:00N 53°33' W 004°06'  
Track history (hours):
 
Tides and Currents Weather Stations Pressure Air Temp Water Temp Dewpoint Dewpoint Depression Visibility Wind Speed Wind Dir Waves Ship Positions

Norbank

Operator: P & O Ferries

Last reported at 2018-May-27 16:52 UTC. Time now 2018-May-27 17:12 UTC.
Position N 53°27' W 003°01'.

Length 167 m; draft 5.6 m.

Type: Ship (hazmat cat A). MMSI: 246213000.

Date/timePositionNaut miles runAvg speedWind from/ knotsBaromVisibWave heightAir tempDewpointWater temp
2018-May-27 16:52N 53°27' W 003°01'0 0.0
2018-May-27 16:25N 53°27' W 003°01'0 0.0
2018-May-27 16:00N 53°27' W 003°01'0 0.0
2018-May-27 15:30N 53°27' W 003°01'0 0.0
2018-May-27 14:54N 53°27' W 003°01'0 0.0
2018-May-27 14:30N 53°27' W 003°01'0 0.0
2018-May-27 14:00N 53°27' W 003°01'0 0.0
2018-May-27 13:26N 53°27' W 003°01'0 0.0
2018-May-27 12:59N 53°27' W 003°01'0 0.0
2018-May-27 12:26N 53°27' W 003°01'0 0.0
2018-May-27 11:53N 53°27' W 003°01'0 0.0
2018-May-27 11:28N 53°27' W 003°01'0 0.0
2018-May-27 10:58N 53°27' W 003°01'0 0.0
2018-May-27 10:28N 53°27' W 003°01'0 0.0
2018-May-27 09:58N 53°27' W 003°01'0 0.0
2018-May-27 09:28N 53°27' W 003°01'0 0.0
2018-May-27 08:54N 53°27' W 003°01'0 0.0
2018-May-27 08:27N 53°27' W 003°01'0 0.0
2018-May-27 08:00N 53°27' W 003°01'0 0.0
2018-May-27 07:30N 53°27' W 003°01'0 0.0
2018-May-27 07:00N 53°27' W 003°01'0 0.0
2018-May-27 06:26N 53°27' W 003°01'0 0.0
2018-May-27 05:59N 53°27' W 003°01'0 0.0
2018-May-27 05:29N 53°27' W 003°01'0 0.0
2018-May-27 04:56N 53°27' W 003°01'0 0.9
2018-May-27 04:28N 53°27' W 003°01'0 0.2
2018-May-27 04:00N 53°27' W 003°01'510.9
2018-May-27 03:30N 53°31' W 003°07'815.6
2018-May-27 03:00N 53°31' W 003°20'817.1
2018-May-27 02:30N 53°31' W 003°34'816.5
2018-May-27 02:00N 53°32' W 003°48'816.6
2018-May-27 01:30N 53°34' W 004°02'916.6
2018-May-27 00:58N 53°36' W 004°16'916.7
2018-May-27 00:25N 53°36' W 004°32'716.5
2018-May-26 23:59N 53°35' W 004°44'2417.6
2018-May-26 22:35N 53°28' W 005°24'218.8
2018-May-26 22:29N 53°28' W 005°27'1018.9
2018-May-26 21:57N 53°25' W 005°43'1018.6
2018-May-26 21:24N 53°21' W 005°59'613.3
2018-May-26 20:56N 53°21' W 006°10'2 0.5
2018-May-26 17:01N 53°21' W 006°13'0 0.0
2018-May-26 16:55N 53°21' W 006°13'0 0.4
2018-May-26 16:30N 53°21' W 006°13'4 8.4
2018-May-26 16:00N 53°20' W 006°06'917.9
2018-May-26 15:31N 53°23' W 005°52'8020.4
2018-May-26 11:37N 53°33' W 003°39'220.9
2018-May-26 11:31N 53°33' W 003°36'1020.5
2018-May-26 11:00N 53°32' W 003°18'815.6
2018-May-26 10:30N 53°30' W 003°06'4 8.1
2018-May-26 10:00N 53°27' W 003°01'0 0.9
2018-May-26 09:30N 53°27' W 003°01'0 0.0
2018-May-26 08:58N 53°27' W 003°01'0 0.0
2018-May-26 08:25N 53°27' W 003°01'0 0.0
2018-May-26 07:58N 53°27' W 003°01'0 0.0
2018-May-26 07:25N 53°27' W 003°01'0 0.0
2018-May-26 06:58N 53°27' W 003°01'0 0.0
2018-May-26 06:30N 53°27' W 003°01'0 0.0
2018-May-26 05:30N 53°27' W 003°01'0 0.0
2018-May-26 05:00N 53°27' W 003°01'0 0.0
2018-May-26 04:30N 53°27' W 003°01'0 0.9
2018-May-26 04:00N 53°27' W 003°01'0 0.4
2018-May-26 03:31N 53°27' W 003°01'611.1
2018-May-26 03:00N 53°31' W 003°07'815.4
2018-May-26 02:30N 53°31' W 003°20'918.4
2018-May-26 02:00N 53°31' W 003°35'918.1
2018-May-26 01:30N 53°32' W 003°51'918.1
2018-May-26 01:00N 53°32' W 004°06'7219.1
2018-May-25 21:14N 53°20' W 006°04'510.2
2018-May-25 20:45N 53°21' W 006°13'0 0.1
2018-May-25 17:30N 53°21' W 006°13'0 0.0
2018-May-25 16:57N 53°21' W 006°13'0 0.0
2018-May-25 16:30N 53°21' W 006°13'2 4.0
2018-May-25 16:00N 53°21' W 006°10'714.4
2018-May-25 15:30N 53°22' W 005°58'916.9
2018-May-25 14:59N 53°25' W 005°44'917.1
2018-May-25 14:27N 53°28' W 005°29'817.2
2018-May-25 13:58N 53°30' W 005°16'4116.9
2018-May-25 11:31N 53°35' W 004°07'217.5
2018-May-25 11:23N 53°35' W 004°03'717.6
2018-May-25 11:00N 53°34' W 003°52'917.3
2018-May-25 10:30N 53°33' W 003°37'917.8
2018-May-25 10:00N 53°33' W 003°22'918.6
2018-May-25 09:30N 53°31' W 003°07'511.0
2018-May-25 09:00N 53°27' W 003°01'0 0.8
2018-May-25 08:28N 53°27' W 003°01'0 0.0
2018-May-25 08:01N 53°27' W 003°01'0 0.0
2018-May-25 07:27N 53°27' W 003°01'0 0.0
2018-May-25 07:00N 53°27' W 003°01'0 0.0
2018-May-25 06:30N 53°27' W 003°01'0 0.0
2018-May-25 05:54N 53°27' W 003°01'0 0.0
2018-May-25 05:29N 53°27' W 003°01'0 0.0
2018-May-25 04:59N 53°27' W 003°01'0 0.0
2018-May-25 04:26N 53°27' W 003°01'0 0.9
2018-May-25 03:59N 53°27' W 003°01'1 1.2
2018-May-25 03:30N 53°27' W 003°02'5 9.1
2018-May-25 03:00N 53°31' W 003°07'815.6
2018-May-25 02:30N 53°31' W 003°20'917.5
2018-May-25 02:00N 53°31' W 003°35'917.3
2018-May-25 01:30N 53°32' W 003°49'917.2
2018-May-25 01:00N 53°33' W 004°03'917.7
2018-May-25 00:30N 53°35' W 004°18'917.7
2018-May-25 00:00N 53°35' W 004°33'917.6
2018-May-24 23:30N 53°35' W 004°48'1819.4
2018-May-24 22:35N 53°30' W 005°17'220.4
2018-May-24 22:29N 53°29' W 005°20'2221.0
2018-May-24 21:26N 53°23' W 005°55'717.1
2018-May-24 21:00N 53°20' W 006°07'4 3.2
2018-May-24 19:49N 53°21' W 006°13'0 0.0
2018-May-24 16:42N 53°21' W 006°13'0 0.0
2018-May-24 16:30N 53°21' W 006°13'2 3.8
2018-May-24 16:00N 53°21' W 006°10'714.0
2018-May-24 15:30N 53°22' W 005°59'917.0
2018-May-24 15:00N 53°25' W 005°45'1016.7
2018-May-24 14:24N 53°27' W 005°29'8815.9
2018-May-24 08:52N 53°27' W 003°01'0 1.2
2018-May-24 08:30N 53°27' W 003°01'0 0.0
2018-May-24 08:00N 53°27' W 003°01'0 0.0
2018-May-24 07:30N 53°27' W 003°01'0 0.0
2018-May-24 06:57N 53°27' W 003°01'0 0.0
2018-May-24 06:30N 53°27' W 003°01'0 0.0
2018-May-24 05:56N 53°27' W 003°01'0 0.0
2018-May-24 05:26N 53°27' W 003°01'0 0.0
2018-May-24 04:59N 53°27' W 003°01'0 0.0
2018-May-24 04:26N 53°27' W 003°01'0 0.2
2018-May-24 04:00N 53°27' W 003°01'0 0.9
2018-May-24 03:30N 53°27' W 003°01'5 9.5
2018-May-24 03:00N 53°30' W 003°06'816.0
2018-May-24 02:30N 53°31' W 003°20'917.6
2018-May-24 02:00N 53°31' W 003°34'917.4
2018-May-24 01:30N 53°32' W 003°49'917.3
2018-May-24 01:00N 53°33' W 004°04'1017.2
2018-May-24 00:27N 53°35' W 004°20'4817.9
2018-May-23 21:45N 53°26' W 005°39'519.3
2018-May-23 21:30N 53°24' W 005°47'918.7
2018-May-23 21:00N 53°21' W 006°01'711.5
2018-May-23 20:26N 53°21' W 006°12'0 0.3
2018-May-23 19:06N 53°21' W 006°13'0 0.0
2018-May-23 18:36N 53°21' W 006°13'0 0.0
2018-May-23 18:24N 53°21' W 006°13'0 0.0
2018-May-23 17:14N 53°21' W 006°13'0 0.0
2018-May-23 16:41N 53°21' W 006°13'0 0.2
2018-May-23 16:20N 53°21' W 006°13'2 5.6
2018-May-23 15:59N 53°21' W 006°10'815.8
2018-May-23 15:29N 53°22' W 005°57'1019.1
2018-May-23 14:59N 53°25' W 005°42'5320.2
2018-May-23 12:21N 53°35' W 004°14'1819.8
2018-May-23 11:28N 53°34' W 003°44'920.2
2018-May-23 11:00N 53°33' W 003°28'919.2
2018-May-23 10:31N 53°31' W 003°13'816.1
2018-May-23 10:00N 53°27' W 003°01'0 0.6
2018-May-23 09:30N 53°27' W 003°01'0 0.8
2018-May-23 08:59N 53°27' W 003°01'0 0.0
2018-May-23 08:29N 53°27' W 003°01'0 0.0
2018-May-23 07:59N 53°27' W 003°01'0 0.0
2018-May-23 07:28N 53°27' W 003°01'0 0.0
2018-May-23 06:58N 53°27' W 003°01'0 0.0
2018-May-23 06:28N 53°27' W 003°01'0 0.0
2018-May-23 05:58N 53°27' W 003°01'0 0.0
2018-May-23 05:27N 53°27' W 003°01'0 0.9
2018-May-23 04:57N 53°27' W 003°01'0 0.3
2018-May-23 04:28N 53°27' W 003°01'1 2.0
2018-May-23 04:00N 53°27' W 003°02'4 7.0
2018-May-23 03:30N 53°30' W 003°06'4 7.5
2018-May-23 03:00N 53°31' W 003°12'611.0
2018-May-23 02:30N 53°31' W 003°21'1019.7
2018-May-23 02:00N 53°31' W 003°38'917.6
2018-May-23 01:30N 53°32' W 003°52'918.1
2018-May-23 01:00N 53°34' W 004°07'1017.8
2018-May-23 00:25N 53°36' W 004°25'717.5
2018-May-23 00:00N 53°36' W 004°37'5416.6
2018-May-22 20:45N 53°20' W 006°04'413.7
2018-May-22 20:29N 53°21' W 006°10'2 0.5
2018-May-22 16:23N 53°21' W 006°13'3 6.8
2018-May-22 16:00N 53°21' W 006°09'917.2
2018-May-22 15:30N 53°23' W 005°55'1219.1
2018-May-22 14:54N 53°27' W 005°36'719.2
2018-May-22 14:30N 53°29' W 005°24'5917.9
2018-May-22 11:14N 53°34' W 003°46'519.5
2018-May-22 11:00N 53°33' W 003°38'1019.7
2018-May-22 10:30N 53°32' W 003°22'917.6
2018-May-22 10:00N 53°31' W 003°07'611.1
2018-May-22 09:30N 53°27' W 003°01'0 0.0
2018-May-22 09:00N 53°27' W 003°01'0 0.8
2018-May-22 08:29N 53°27' W 003°01'0 0.0
2018-May-22 07:58N 53°27' W 003°01'0 0.0
2018-May-22 07:22N 53°27' W 003°01'0 0.0
2018-May-22 06:58N 53°27' W 003°01'0 0.0
2018-May-22 06:28N 53°27' W 003°01'0 0.0
2018-May-22 05:58N 53°27' W 003°01'0 0.0
2018-May-22 05:30N 53°27' W 003°01'0 0.0
2018-May-22 05:01N 53°27' W 003°01'0 0.8
2018-May-22 04:30N 53°27' W 003°01'1 2.2
2018-May-22 04:00N 53°28' W 003°03'612.3
2018-May-22 03:30N 53°32' W 003°11'612.1
2018-May-22 03:00N 53°31' W 003°21'713.9
2018-May-22 02:30N 53°31' W 003°33'714.6
2018-May-22 02:00N 53°31' W 003°45'714.4
2018-May-22 01:30N 53°33' W 003°57'714.6
2018-May-22 01:00N 53°34' W 004°09'5115.4
2018-May-21 21:40N 53°26' W 005°34'314.7
2018-May-21 21:28N 53°25' W 005°39'816.7
2018-May-21 21:01N 53°23' W 005°51'916.7
2018-May-21 20:29N 53°20' W 006°04'5 9.5
2018-May-21 19:57N 53°21' W 006°13'0 0.0
2018-May-21 05:27N 53°21' W 006°13'0 0.0
2018-May-21 04:47N 53°21' W 006°13'0 0.0
2018-May-21 04:24N 53°21' W 006°13'1 2.3
2018-May-21 04:00N 53°21' W 006°12'612.0
2018-May-21 03:30N 53°21' W 006°02'815.2
2018-May-21 02:59N 53°24' W 005°50'815.4
2018-May-21 02:30N 53°26' W 005°38'4815.2
2018-May-20 23:20N 53°36' W 004°19'915.4
2018-May-20 22:44N 53°36' W 004°03'416.6
2018-May-20 22:30N 53°36' W 003°57'816.6
2018-May-20 22:00N 53°34' W 003°43'817.2
2018-May-20 21:30N 53°33' W 003°29'917.2
2018-May-20 21:00N 53°31' W 003°14'714.7
2018-May-20 20:30N 53°28' W 003°03'2 3.2
2018-May-20 20:00N 53°27' W 003°01'0 0.6
2018-May-20 19:16N 53°27' W 003°01'0 0.0
2018-May-20 18:58N 53°27' W 003°01'0 0.0
2018-May-20 18:28N 53°27' W 003°01'0 0.0
2018-May-20 17:55N 53°27' W 003°01'0 0.0
2018-May-20 17:30N 53°27' W 003°01'0 0.0
2018-May-20 17:00N 53°27' W 003°01'0 0.0
2018-May-20 16:30N 53°27' W 003°01'0 0.0
2018-May-20 16:00N 53°27' W 003°01'0 0.0
2018-May-20 15:24N 53°27' W 003°01'0 0.0
2018-May-20 14:59N 53°27' W 003°01'0 0.0
2018-May-20 14:29N 53°27' W 003°01'0 0.0
2018-May-20 13:59N 53°27' W 003°01'0 0.0
2018-May-20 13:29N 53°27' W 003°01'0 0.0
2018-May-20 12:58N 53°27' W 003°01'0 0.0
2018-May-20 12:25N 53°27' W 003°01'0 0.0
2018-May-20 11:55N 53°27' W 003°01'0 0.0
2018-May-20 11:28N 53°27' W 003°01'0 0.0
2018-May-20 10:58N 53°27' W 003°01'0 0.0
2018-May-20 10:30N 53°27' W 003°01'0 0.0
2018-May-20 10:00N 53°27' W 003°01'0 0.0
2018-May-20 09:30N 53°27' W 003°01'0 0.0
2018-May-20 09:00N 53°27' W 003°01'0 0.0
2018-May-20 08:27N 53°27' W 003°01'0 0.0
2018-May-20 07:59N 53°27' W 003°01'0 0.0
2018-May-20 07:29N 53°27' W 003°01'0 0.0
2018-May-20 06:59N 53°27' W 003°01'0 0.0
2018-May-20 06:29N 53°27' W 003°01'0 0.0
2018-May-20 05:58N 53°27' W 003°01'0 0.0
2018-May-20 05:28N 53°27' W 003°01'0 0.0
2018-May-20 04:58N 53°27' W 003°01'0 0.9
2018-May-20 04:27N 53°27' W 003°01'0 0.7
2018-May-20 04:00N 53°27' W 003°02'714.4
2018-May-20 03:30N 53°31' W 003°11'918.2
2018-May-20 03:00N 53°31' W 003°26'918.1
2018-May-20 02:31N 53°31' W 003°42'917.0
2018-May-20 02:00N 53°32' W 003°56'917.4
2018-May-20 01:30N 53°33' W 004°10'712.6
2018-May-20 00:57N 53°35' W 004°22'613.2
2018-May-20 00:30N 53°36' W 004°32'713.9
2018-May-20 00:00N 53°35' W 004°43'714.1
2018-May-19 23:30N 53°33' W 004°55'713.1
2018-May-19 22:57N 53°32' W 005°07'817.2
2018-May-19 22:30N 53°29' W 005°19'917.5
2018-May-19 21:59N 53°26' W 005°33'1417.5
2018-May-19 21:11N 53°22' W 005°56'517.8
2018-May-19 20:53N 53°20' W 006°04'511.6
2018-May-19 20:30N 53°21' W 006°11'1 0.3
2018-May-19 17:00N 53°21' W 006°13'0 0.0
2018-May-19 16:12N 53°21' W 006°13'0 0.0
2018-May-19 10:13N 53°21' W 006°13'0 0.1
2018-May-19 09:55N 53°21' W 006°13'2 4.8
2018-May-19 09:28N 53°21' W 006°09'715.0
2018-May-19 09:00N 53°22' W 005°58'816.6
2018-May-19 08:30N 53°25' W 005°45'916.9
2018-May-19 07:59N 53°27' W 005°30'916.9
2018-May-19 07:28N 53°29' W 005°16'817.3
2018-May-19 07:00N 53°32' W 005°03'817.0
2018-May-19 06:30N 53°34' W 004°50'917.5
2018-May-19 06:00N 53°35' W 004°35'918.0
2018-May-19 05:30N 53°35' W 004°20'1019.3
2018-May-19 04:59N 53°35' W 004°03'919.3
2018-May-19 04:30N 53°34' W 003°47'1020.0
2018-May-19 04:00N 53°33' W 003°31'1019.8
2018-May-19 03:29N 53°31' W 003°14'816.1
2018-May-19 03:00N 53°28' W 003°02'1 1.9
2018-May-19 02:30N 53°27' W 003°01'0 0.8
2018-May-19 01:56N 53°27' W 003°01'0 0.0
2018-May-19 01:26N 53°27' W 003°01'0 0.0
2018-May-19 00:56N 53°27' W 003°01'0 0.0
2018-May-19 00:25N 53°27' W 003°01'0 0.0
2018-May-18 23:58N 53°27' W 003°01'0 0.0
2018-May-18 23:28N 53°27' W 003°01'0 0.0
2018-May-18 22:52N 53°27' W 003°01'0 0.0
2018-May-18 22:30N 53°27' W 003°01'0 0.8
2018-May-18 22:00N 53°27' W 003°01'0 0.7
2018-May-18 21:30N 53°27' W 003°02'714.3
2018-May-18 21:00N 53°32' W 003°11'815.9
2018-May-18 20:30N 53°31' W 003°25'817.1
2018-May-18 20:00N 53°31' W 003°39'917.0
2018-May-18 19:30N 53°32' W 003°53'817.0
2018-May-18 19:00N 53°33' W 004°07'816.5
2018-May-18 18:30N 53°34' W 004°21'916.0
2018-May-18 17:56N 53°35' W 004°36'715.5
2018-May-18 17:30N 53°34' W 004°47'1615.6
2018-May-18 16:28N 53°29' W 005°13'816.9
2018-May-18 16:00N 53°26' W 005°26'917.3
2018-May-18 15:30N 53°24' W 005°39'1017.1
2018-May-18 14:56N 53°22' W 005°56'715.2
2018-May-18 14:29N 53°20' W 006°07'4 7.4
2018-May-18 13:57N 53°21' W 006°13'0 0.0
2018-May-18 12:47N 53°21' W 006°13'0 0.0
2018-May-18 12:14N 53°21' W 006°13'0 0.0
2018-May-18 10:16N 53°21' W 006°13'0 0.0
2018-May-18 10:00N 53°21' W 006°13'2 4.3
2018-May-18 09:30N 53°21' W 006°09'815.6
2018-May-18 09:00N 53°23' W 005°57'817.1
2018-May-18 08:30N 53°25' W 005°43'1017.8
2018-May-18 07:56N 53°28' W 005°27'1717.9
2018-May-18 06:59N 53°33' W 004°60'918.1
2018-May-18 06:30N 53°35' W 004°46'918.7
2018-May-18 06:00N 53°38' W 004°30'1219.2
2018-May-18 05:23N 53°35' W 004°11'820.8
2018-May-18 05:00N 53°34' W 003°57'1121.0
2018-May-18 04:30N 53°34' W 003°40'1021.1
2018-May-18 04:00N 53°33' W 003°22'918.7
2018-May-18 03:30N 53°31' W 003°07'510.6
2018-May-18 03:00N 53°27' W 003°01'0 0.8
2018-May-18 02:30N 53°27' W 003°01'0 0.3
2018-May-18 01:58N 53°27' W 003°01'0 0.0
2018-May-18 01:30N 53°27' W 003°01'0 0.0
2018-May-18 01:00N 53°27' W 003°01'0 0.0
2018-May-18 00:27N 53°27' W 003°01'0 0.0
2018-May-17 23:57N 53°27' W 003°01'0 0.0
2018-May-17 23:23N 53°27' W 003°01'0 0.0
2018-May-17 23:00N 53°27' W 003°01'0 0.7
2018-May-17 22:27N 53°27' W 003°01'1 3.3
2018-May-17 22:00N 53°28' W 003°03'3 5.4
2018-May-17 21:30N 53°30' W 003°06'4 7.8
2018-May-17 21:00N 53°31' W 003°12'714.4
2018-May-17 20:30N 53°31' W 003°24'816.9
2018-May-17 20:00N 53°31' W 003°38'916.9
2018-May-17 19:30N 53°32' W 003°53'816.7
2018-May-17 19:00N 53°33' W 004°06'  

Dump ship's entire track history